sensor_id;sensor_type;location;lat;lon;timestamp;temperature;humidity
52471;DHT22;38382;53.160;7.026;2023-03-23T00:01:16;10.70;99.90
52471;DHT22;38382;53.160;7.026;2023-03-23T00:03:46;10.60;99.90
52471;DHT22;38382;53.160;7.026;2023-03-23T00:06:13;10.70;99.90
52471;DHT22;38382;53.160;7.026;2023-03-23T00:08:44;10.60;99.90
52471;DHT22;38382;53.160;7.026;2023-03-23T00:11:14;10.60;99.90
52471;DHT22;38382;53.160;7.026;2023-03-23T00:13:41;10.60;99.90
52471;DHT22;38382;53.160;7.026;2023-03-23T00:16:08;10.60;99.90
52471;DHT22;38382;53.160;7.026;2023-03-23T00:18:48;10.70;99.90
52471;DHT22;38382;53.160;7.026;2023-03-23T00:21:22;10.60;99.90
52471;DHT22;38382;53.160;7.026;2023-03-23T00:24:16;10.60;99.90
52471;DHT22;38382;53.160;7.026;2023-03-23T00:26:47;10.60;99.90
52471;DHT22;38382;53.160;7.026;2023-03-23T00:29:16;10.70;99.90
52471;DHT22;38382;53.160;7.026;2023-03-23T00:31:43;10.70;99.90
52471;DHT22;38382;53.160;7.026;2023-03-23T00:34:16;10.70;99.90
52471;DHT22;38382;53.160;7.026;2023-03-23T00:36:50;10.80;99.90
52471;DHT22;38382;53.160;7.026;2023-03-23T00:39:16;10.80;99.90
52471;DHT22;38382;53.160;7.026;2023-03-23T00:41:43;10.80;99.90
52471;DHT22;38382;53.160;7.026;2023-03-23T00:44:09;10.80;99.90
52471;DHT22;38382;53.160;7.026;2023-03-23T00:46:35;10.80;99.90
52471;DHT22;38382;53.160;7.026;2023-03-23T00:49:11;10.90;99.90
52471;DHT22;38382;53.160;7.026;2023-03-23T00:51:38;10.80;99.90
52471;DHT22;38382;53.160;7.026;2023-03-23T00:54:04;10.90;99.90
52471;DHT22;38382;53.160;7.026;2023-03-23T00:56:30;10.90;99.90
52471;DHT22;38382;53.160;7.026;2023-03-23T00:58:56;10.80;99.90
52471;DHT22;38382;53.160;7.026;2023-03-23T01:01:22;10.90;99.90
52471;DHT22;38382;53.160;7.026;2023-03-23T01:03:47;10.90;99.90
52471;DHT22;38382;53.160;7.026;2023-03-23T01:06:15;10.90;99.90
52471;DHT22;38382;53.160;7.026;2023-03-23T01:08:42;10.90;99.90
52471;DHT22;38382;53.160;7.026;2023-03-23T01:11:16;10.90;99.90
52471;DHT22;38382;53.160;7.026;2023-03-23T01:13:42;10.90;99.90
52471;DHT22;38382;53.160;7.026;2023-03-23T01:16:10;10.90;99.90
52471;DHT22;38382;53.160;7.026;2023-03-23T01:18:36;10.90;99.90
52471;DHT22;38382;53.160;7.026;2023-03-23T01:21:07;10.80;99.90
52471;DHT22;38382;53.160;7.026;2023-03-23T01:23:34;10.90;99.90
52471;DHT22;38382;53.160;7.026;2023-03-23T01:26:08;10.90;99.90
52471;DHT22;38382;53.160;7.026;2023-03-23T01:28:35;10.90;99.90
52471;DHT22;38382;53.160;7.026;2023-03-23T01:31:06;10.80;99.90
52471;DHT22;38382;53.160;7.026;2023-03-23T01:33:33;10.80;99.90
52471;DHT22;38382;53.160;7.026;2023-03-23T01:36:07;10.80;99.90
52471;DHT22;38382;53.160;7.026;2023-03-23T01:38:34;10.80;99.90
52471;DHT22;38382;53.160;7.026;2023-03-23T01:41:01;10.70;99.90
52471;DHT22;38382;53.160;7.026;2023-03-23T01:43:27;10.70;99.90
52471;DHT22;38382;53.160;7.026;2023-03-23T01:45:53;10.70;99.90
52471;DHT22;38382;53.160;7.026;2023-03-23T01:48:34;10.70;99.90
52471;DHT22;38382;53.160;7.026;2023-03-23T01:51:13;10.70;99.90
52471;DHT22;38382;53.160;7.026;2023-03-23T01:54:00;10.60;99.90
52471;DHT22;38382;53.160;7.026;2023-03-23T01:56:32;10.60;99.90
52471;DHT22;38382;53.160;7.026;2023-03-23T01:59:03;10.60;99.90
52471;DHT22;38382;53.160;7.026;2023-03-23T02:01:29;10.60;99.90
52471;DHT22;38382;53.160;7.026;2023-03-23T02:03:56;10.70;99.90
52471;DHT22;38382;53.160;7.026;2023-03-23T02:06:23;10.70;99.90
52471;DHT22;38382;53.160;7.026;2023-03-23T02:08:50;10.70;99.90
52471;DHT22;38382;53.160;7.026;2023-03-23T02:11:19;10.70;99.90
52471;DHT22;38382;53.160;7.026;2023-03-23T02:13:46;10.80;99.90
52471;DHT22;38382;53.160;7.026;2023-03-23T02:27:48;10.90;99.90
52471;DHT22;38382;53.160;7.026;2023-03-23T02:36:00;10.80;99.90
52471;DHT22;38382;53.160;7.026;2023-03-23T02:38:40;10.90;99.90
52471;DHT22;38382;53.160;7.026;2023-03-23T02:41:10;10.80;99.90
52471;DHT22;38382;53.160;7.026;2023-03-23T02:43:42;10.90;99.90
52471;DHT22;38382;53.160;7.026;2023-03-23T02:46:10;10.90;99.90
52471;DHT22;38382;53.160;7.026;2023-03-23T02:48:38;10.90;99.90
52471;DHT22;38382;53.160;7.026;2023-03-23T02:51:06;10.90;99.90
52471;DHT22;38382;53.160;7.026;2023-03-23T02:53:36;10.90;99.90
52471;DHT22;38382;53.160;7.026;2023-03-23T02:56:03;10.90;99.90
52471;DHT22;38382;53.160;7.026;2023-03-23T02:58:30;10.90;99.90
52471;DHT22;38382;53.160;7.026;2023-03-23T03:00:56;10.80;99.90
52471;DHT22;38382;53.160;7.026;2023-03-23T03:03:28;10.80;99.90
52471;DHT22;38382;53.160;7.026;2023-03-23T03:06:40;10.80;99.90
52471;DHT22;38382;53.160;7.026;2023-03-23T03:08:50;10.80;99.90
52471;DHT22;38382;53.160;7.026;2023-03-23T03:11:19;10.80;99.90
52471;DHT22;38382;53.160;7.026;2023-03-23T03:14:06;10.80;99.90
52471;DHT22;38382;53.160;7.026;2023-03-23T03:16:35;10.80;99.90
52471;DHT22;38382;53.160;7.026;2023-03-23T03:19:10;10.80;99.90
52471;DHT22;38382;53.160;7.026;2023-03-23T03:21:41;10.80;99.90
52471;DHT22;38382;53.160;7.026;2023-03-23T03:24:11;10.80;99.90
52471;DHT22;38382;53.160;7.026;2023-03-23T03:26:44;10.80;99.90
52471;DHT22;38382;53.160;7.026;2023-03-23T03:29:18;10.80;99.90
52471;DHT22;38382;53.160;7.026;2023-03-23T03:31:46;10.80;99.90
52471;DHT22;38382;53.160;7.026;2023-03-23T03:34:14;10.80;99.90
52471;DHT22;38382;53.160;7.026;2023-03-23T03:36:44;10.80;99.90
52471;DHT22;38382;53.160;7.026;2023-03-23T03:39:13;10.90;99.90
52471;DHT22;38382;53.160;7.026;2023-03-23T03:41:41;10.90;99.90
52471;DHT22;38382;53.160;7.026;2023-03-23T03:44:07;10.80;99.90
52471;DHT22;38382;53.160;7.026;2023-03-23T03:46:34;10.80;99.90
52471;DHT22;38382;53.160;7.026;2023-03-23T03:49:03;10.80;99.90
52471;DHT22;38382;53.160;7.026;2023-03-23T03:51:30;10.80;99.90
52471;DHT22;38382;53.160;7.026;2023-03-23T03:53:56;10.80;99.90
52471;DHT22;38382;53.160;7.026;2023-03-23T03:56:23;10.80;99.90
52471;DHT22;38382;53.160;7.026;2023-03-23T03:58:50;10.80;99.90
52471;DHT22;38382;53.160;7.026;2023-03-23T04:01:17;10.80;99.90
52471;DHT22;38382;53.160;7.026;2023-03-23T04:03:44;10.80;99.90
52471;DHT22;38382;53.160;7.026;2023-03-23T04:06:10;10.80;99.90
52471;DHT22;38382;53.160;7.026;2023-03-23T04:08:38;10.90;99.90
52471;DHT22;38382;53.160;7.026;2023-03-23T04:11:04;10.80;99.90
52471;DHT22;38382;53.160;7.026;2023-03-23T04:13:31;10.80;99.90
52471;DHT22;38382;53.160;7.026;2023-03-23T04:15:57;10.80;99.90
52471;DHT22;38382;53.160;7.026;2023-03-23T04:18:23;10.80;99.90
52471;DHT22;38382;53.160;7.026;2023-03-23T04:20:50;10.80;99.90
52471;DHT22;38382;53.160;7.026;2023-03-23T04:23:17;10.80;99.90
52471;DHT22;38382;53.160;7.026;2023-03-23T04:25:49;10.80;99.90
52471;DHT22;38382;53.160;7.026;2023-03-23T04:28:17;10.80;99.90
52471;DHT22;38382;53.160;7.026;2023-03-23T04:30:45;10.80;99.90
52471;DHT22;38382;53.160;7.026;2023-03-23T04:33:14;10.80;99.90
52471;DHT22;38382;53.160;7.026;2023-03-23T04:35:43;10.80;99.90
52471;DHT22;38382;53.160;7.026;2023-03-23T04:38:12;10.80;99.90
52471;DHT22;38382;53.160;7.026;2023-03-23T04:40:40;10.90;99.90
52471;DHT22;38382;53.160;7.026;2023-03-23T04:43:06;10.90;99.90
52471;DHT22;38382;53.160;7.026;2023-03-23T04:45:33;11.00;99.90
52471;DHT22;38382;53.160;7.026;2023-03-23T04:48:00;11.00;99.90
52471;DHT22;38382;53.160;7.026;2023-03-23T04:50:31;11.00;99.90
52471;DHT22;38382;53.160;7.026;2023-03-23T04:53:02;11.00;99.90
52471;DHT22;38382;53.160;7.026;2023-03-23T04:55:33;11.00;99.90
52471;DHT22;38382;53.160;7.026;2023-03-23T04:58:06;11.10;99.90
52471;DHT22;38382;53.160;7.026;2023-03-23T05:00:33;11.10;99.90
52471;DHT22;38382;53.160;7.026;2023-03-23T05:02:59;11.10;99.90
52471;DHT22;38382;53.160;7.026;2023-03-23T05:05:27;11.10;99.90
52471;DHT22;38382;53.160;7.026;2023-03-23T05:07:55;11.10;99.90
52471;DHT22;38382;53.160;7.026;2023-03-23T05:10:22;10.90;99.90
52471;DHT22;38382;53.160;7.026;2023-03-23T05:12:48;10.80;99.90
52471;DHT22;38382;53.160;7.026;2023-03-23T05:15:15;10.60;99.90
52471;DHT22;38382;53.160;7.026;2023-03-23T05:17:41;10.50;99.90
52471;DHT22;38382;53.160;7.026;2023-03-23T05:20:13;10.40;99.90
52471;DHT22;38382;53.160;7.026;2023-03-23T05:22:41;10.30;99.90
52471;DHT22;38382;53.160;7.026;2023-03-23T05:25:08;10.30;99.90
52471;DHT22;38382;53.160;7.026;2023-03-23T05:27:35;10.20;99.90
52471;DHT22;38382;53.160;7.026;2023-03-23T05:30:01;10.20;99.90
52471;DHT22;38382;53.160;7.026;2023-03-23T05:32:27;10.20;99.90
52471;DHT22;38382;53.160;7.026;2023-03-23T05:35:00;10.10;99.90
52471;DHT22;38382;53.160;7.026;2023-03-23T05:37:28;10.20;99.90
52471;DHT22;38382;53.160;7.026;2023-03-23T05:40:00;10.20;99.90
52471;DHT22;38382;53.160;7.026;2023-03-23T05:42:33;10.10;99.90
52471;DHT22;38382;53.160;7.026;2023-03-23T05:45:00;10.10;99.90
52471;DHT22;38382;53.160;7.026;2023-03-23T05:47:27;10.10;99.90
52471;DHT22;38382;53.160;7.026;2023-03-23T05:49:52;10.10;99.90
52471;DHT22;38382;53.160;7.026;2023-03-23T05:52:19;10.10;99.90
52471;DHT22;38382;53.160;7.026;2023-03-23T05:54:46;10.10;99.90
52471;DHT22;38382;53.160;7.026;2023-03-23T05:57:11;10.10;99.90
52471;DHT22;38382;53.160;7.026;2023-03-23T05:59:37;10.10;99.90
52471;DHT22;38382;53.160;7.026;2023-03-23T06:02:03;10.10;99.90
52471;DHT22;38382;53.160;7.026;2023-03-23T06:04:30;10.20;99.90
52471;DHT22;38382;53.160;7.026;2023-03-23T06:06:55;10.20;99.90
52471;DHT22;38382;53.160;7.026;2023-03-23T06:09:21;10.20;99.90
52471;DHT22;38382;53.160;7.026;2023-03-23T06:11:49;10.20;99.90
52471;DHT22;38382;53.160;7.026;2023-03-23T06:14:14;10.20;99.90
52471;DHT22;38382;53.160;7.026;2023-03-23T06:16:41;10.20;99.90
52471;DHT22;38382;53.160;7.026;2023-03-23T06:19:07;10.20;99.90
52471;DHT22;38382;53.160;7.026;2023-03-23T06:21:33;10.20;99.90
52471;DHT22;38382;53.160;7.026;2023-03-23T06:23:59;10.20;99.90
52471;DHT22;38382;53.160;7.026;2023-03-23T06:26:34;10.20;99.90
52471;DHT22;38382;53.160;7.026;2023-03-23T06:29:02;10.20;99.90
52471;DHT22;38382;53.160;7.026;2023-03-23T06:31:30;10.20;99.90
52471;DHT22;38382;53.160;7.026;2023-03-23T06:33:58;10.20;99.90
52471;DHT22;38382;53.160;7.026;2023-03-23T06:36:24;10.30;99.90
52471;DHT22;38382;53.160;7.026;2023-03-23T06:38:52;10.30;99.90
52471;DHT22;38382;53.160;7.026;2023-03-23T06:41:17;10.40;99.90
52471;DHT22;38382;53.160;7.026;2023-03-23T06:43:44;10.40;99.90
52471;DHT22;38382;53.160;7.026;2023-03-23T06:46:11;10.40;99.90
52471;DHT22;38382;53.160;7.026;2023-03-23T06:48:37;10.40;99.90
52471;DHT22;38382;53.160;7.026;2023-03-23T06:51:04;10.50;99.90
52471;DHT22;38382;53.160;7.026;2023-03-23T06:53:30;10.50;99.90
52471;DHT22;38382;53.160;7.026;2023-03-23T06:55:56;10.50;99.90
52471;DHT22;38382;53.160;7.026;2023-03-23T06:58:22;10.50;99.90
52471;DHT22;38382;53.160;7.026;2023-03-23T07:00:56;10.50;99.90
52471;DHT22;38382;53.160;7.026;2023-03-23T07:03:22;10.50;99.90
52471;DHT22;38382;53.160;7.026;2023-03-23T07:05:48;10.60;99.90
52471;DHT22;38382;53.160;7.026;2023-03-23T07:08:14;10.60;99.90
52471;DHT22;38382;53.160;7.026;2023-03-23T07:10:40;10.60;99.90
52471;DHT22;38382;53.160;7.026;2023-03-23T07:13:06;10.60;99.90
52471;DHT22;38382;53.160;7.026;2023-03-23T07:15:32;10.70;99.90
52471;DHT22;38382;53.160;7.026;2023-03-23T07:17:58;10.80;99.90
52471;DHT22;38382;53.160;7.026;2023-03-23T07:20:23;10.80;99.90
52471;DHT22;38382;53.160;7.026;2023-03-23T07:22:49;10.80;99.90
52471;DHT22;38382;53.160;7.026;2023-03-23T07:25:17;10.80;99.90
52471;DHT22;38382;53.160;7.026;2023-03-23T07:27:45;10.80;99.90
52471;DHT22;38382;53.160;7.026;2023-03-23T07:30:12;10.90;99.90
52471;DHT22;38382;53.160;7.026;2023-03-23T07:32:38;10.90;99.90
52471;DHT22;38382;53.160;7.026;2023-03-23T07:35:04;10.90;99.90
52471;DHT22;38382;53.160;7.026;2023-03-23T07:37:30;10.90;99.90
52471;DHT22;38382;53.160;7.026;2023-03-23T07:39:57;10.80;99.90
52471;DHT22;38382;53.160;7.026;2023-03-23T07:42:23;10.80;99.90
52471;DHT22;38382;53.160;7.026;2023-03-23T07:44:49;10.80;99.90
52471;DHT22;38382;53.160;7.026;2023-03-23T07:47:15;10.80;99.90
52471;DHT22;38382;53.160;7.026;2023-03-23T07:49:43;10.90;99.90
52471;DHT22;38382;53.160;7.026;2023-03-23T07:52:09;11.00;99.90
52471;DHT22;38382;53.160;7.026;2023-03-23T07:54:36;11.10;99.90
52471;DHT22;38382;53.160;7.026;2023-03-23T07:57:02;11.20;99.90
52471;DHT22;38382;53.160;7.026;2023-03-23T07:59:28;11.30;99.90
52471;DHT22;38382;53.160;7.026;2023-03-23T08:01:54;11.40;99.90
52471;DHT22;38382;53.160;7.026;2023-03-23T08:04:19;11.40;99.90
52471;DHT22;38382;53.160;7.026;2023-03-23T08:06:45;11.50;99.90
52471;DHT22;38382;53.160;7.026;2023-03-23T08:09:12;11.50;99.90
52471;DHT22;38382;53.160;7.026;2023-03-23T08:11:38;11.60;99.90
52471;DHT22;38382;53.160;7.026;2023-03-23T08:14:05;11.60;99.90
52471;DHT22;38382;53.160;7.026;2023-03-23T08:16:31;11.70;99.90
52471;DHT22;38382;53.160;7.026;2023-03-23T08:18:57;11.80;99.90
52471;DHT22;38382;53.160;7.026;2023-03-23T08:21:24;11.80;99.90
52471;DHT22;38382;53.160;7.026;2023-03-23T08:23:49;11.80;99.90
52471;DHT22;38382;53.160;7.026;2023-03-23T08:26:15;11.90;99.90
52471;DHT22;38382;53.160;7.026;2023-03-23T08:28:42;11.90;99.90
52471;DHT22;38382;53.160;7.026;2023-03-23T08:31:13;12.00;99.90
52471;DHT22;38382;53.160;7.026;2023-03-23T08:33:40;12.00;99.90
52471;DHT22;38382;53.160;7.026;2023-03-23T08:36:08;12.00;99.90
52471;DHT22;38382;53.160;7.026;2023-03-23T08:38:34;12.10;99.90
52471;DHT22;38382;53.160;7.026;2023-03-23T08:41:02;12.10;99.90
52471;DHT22;38382;53.160;7.026;2023-03-23T08:43:29;12.20;99.90
52471;DHT22;38382;53.160;7.026;2023-03-23T08:45:54;12.30;99.90
52471;DHT22;38382;53.160;7.026;2023-03-23T08:48:21;12.40;99.90
52471;DHT22;38382;53.160;7.026;2023-03-23T08:50:49;12.40;99.90
52471;DHT22;38382;53.160;7.026;2023-03-23T08:53:15;12.40;99.90
52471;DHT22;38382;53.160;7.026;2023-03-23T08:55:41;12.40;99.90
52471;DHT22;38382;53.160;7.026;2023-03-23T08:58:08;12.30;99.90
52471;DHT22;38382;53.160;7.026;2023-03-23T09:00:34;12.30;99.90
52471;DHT22;38382;53.160;7.026;2023-03-23T09:03:00;12.20;99.90
52471;DHT22;38382;53.160;7.026;2023-03-23T09:05:27;12.30;99.90
52471;DHT22;38382;53.160;7.026;2023-03-23T09:07:55;12.50;99.90
52471;DHT22;38382;53.160;7.026;2023-03-23T09:10:27;12.60;99.90
52471;DHT22;38382;53.160;7.026;2023-03-23T09:12:56;12.70;99.90
52471;DHT22;38382;53.160;7.026;2023-03-23T09:15:23;12.80;99.90
52471;DHT22;38382;53.160;7.026;2023-03-23T09:17:50;13.00;99.90
52471;DHT22;38382;53.160;7.026;2023-03-23T09:20:19;13.10;99.90
52471;DHT22;38382;53.160;7.026;2023-03-23T09:22:49;13.10;99.90
52471;DHT22;38382;53.160;7.026;2023-03-23T09:25:17;13.00;99.90
52471;DHT22;38382;53.160;7.026;2023-03-23T09:27:52;13.00;99.90
52471;DHT22;38382;53.160;7.026;2023-03-23T09:30:22;12.90;99.90
52471;DHT22;38382;53.160;7.026;2023-03-23T09:32:48;12.90;99.90
52471;DHT22;38382;53.160;7.026;2023-03-23T09:35:15;12.90;99.90
52471;DHT22;38382;53.160;7.026;2023-03-23T09:37:43;13.10;99.90
52471;DHT22;38382;53.160;7.026;2023-03-23T09:40:16;13.50;99.90
52471;DHT22;38382;53.160;7.026;2023-03-23T09:50:52;14.50;99.90
52471;DHT22;38382;53.160;7.026;2023-03-23T09:53:24;14.20;99.90
52471;DHT22;38382;53.160;7.026;2023-03-23T09:55:52;14.00;99.90
52471;DHT22;38382;53.160;7.026;2023-03-23T09:58:30;13.70;99.90
52471;DHT22;38382;53.160;7.026;2023-03-23T10:01:07;13.60;99.90
52471;DHT22;38382;53.160;7.026;2023-03-23T10:03:45;13.50;99.90
52471;DHT22;38382;53.160;7.026;2023-03-23T10:06:16;13.70;99.90
52471;DHT22;38382;53.160;7.026;2023-03-23T10:08:51;14.00;99.90
52471;DHT22;38382;53.160;7.026;2023-03-23T10:14:55;13.80;99.90
52471;DHT22;38382;53.160;7.026;2023-03-23T10:20:19;13.80;99.90
52471;DHT22;38382;53.160;7.026;2023-03-23T10:22:53;13.90;99.90
52471;DHT22;38382;53.160;7.026;2023-03-23T10:25:24;13.60;99.90
52471;DHT22;38382;53.160;7.026;2023-03-23T10:28:20;13.60;99.90
52471;DHT22;38382;53.160;7.026;2023-03-23T10:30:56;13.50;99.90
52471;DHT22;38382;53.160;7.026;2023-03-23T10:33:42;13.40;99.90
52471;DHT22;38382;53.160;7.026;2023-03-23T10:39:13;13.40;99.90
52471;DHT22;38382;53.160;7.026;2023-03-23T10:41:40;13.80;99.90
52471;DHT22;38382;53.160;7.026;2023-03-23T10:44:21;14.20;99.90
52471;DHT22;38382;53.160;7.026;2023-03-23T10:47:05;14.60;99.90
52471;DHT22;38382;53.160;7.026;2023-03-23T10:49:48;15.00;99.90
52471;DHT22;38382;53.160;7.026;2023-03-23T10:52:29;15.30;99.90
52471;DHT22;38382;53.160;7.026;2023-03-23T10:55:16;15.50;99.90
52471;DHT22;38382;53.160;7.026;2023-03-23T10:57:45;15.70;99.90
52471;DHT22;38382;53.160;7.026;2023-03-23T11:00:21;16.10;99.90
52471;DHT22;38382;53.160;7.026;2023-03-23T11:03:05;16.10;99.90
52471;DHT22;38382;53.160;7.026;2023-03-23T11:05:53;16.20;99.90
52471;DHT22;38382;53.160;7.026;2023-03-23T11:08:22;16.40;99.90
52471;DHT22;38382;53.160;7.026;2023-03-23T11:10:56;16.60;99.90
52471;DHT22;38382;53.160;7.026;2023-03-23T11:13:29;16.60;99.90
52471;DHT22;38382;53.160;7.026;2023-03-23T11:15:55;16.50;99.90
52471;DHT22;38382;53.160;7.026;2023-03-23T11:21:02;16.70;99.90
52471;DHT22;38382;53.160;7.026;2023-03-23T11:23:29;16.90;99.90
52471;DHT22;38382;53.160;7.026;2023-03-23T11:26:13;17.10;99.90
52471;DHT22;38382;53.160;7.026;2023-03-23T11:31:40;16.90;99.90
52471;DHT22;38382;53.160;7.026;2023-03-23T11:34:53;16.80;99.90
52471;DHT22;38382;53.160;7.026;2023-03-23T11:37:02;17.10;99.90
52471;DHT22;38382;53.160;7.026;2023-03-23T11:39:34;17.30;99.90
52471;DHT22;38382;53.160;7.026;2023-03-23T11:42:02;17.70;99.90
52471;DHT22;38382;53.160;7.026;2023-03-23T11:44:42;17.80;99.90
52471;DHT22;38382;53.160;7.026;2023-03-23T11:47:20;17.60;99.90
52471;DHT22;38382;53.160;7.026;2023-03-23T11:58:42;16.90;99.90
52471;DHT22;38382;53.160;7.026;2023-03-23T12:03:58;17.60;99.90
52471;DHT22;38382;53.160;7.026;2023-03-23T12:06:44;17.60;99.90
52471;DHT22;38382;53.160;7.026;2023-03-23T12:17:17;17.50;99.90
52471;DHT22;38382;53.160;7.026;2023-03-23T12:20:03;17.20;99.90
52471;DHT22;38382;53.160;7.026;2023-03-23T12:28:50;16.60;99.90
52471;DHT22;38382;53.160;7.026;2023-03-23T12:33:57;16.60;99.90
52471;DHT22;38382;53.160;7.026;2023-03-23T12:39:00;16.80;99.90
52471;DHT22;38382;53.160;7.026;2023-03-23T12:44:08;17.90;99.90
52471;DHT22;38382;53.160;7.026;2023-03-23T12:49:28;18.00;99.70
52471;DHT22;38382;53.160;7.026;2023-03-23T12:52:08;17.80;99.90
52471;DHT22;38382;53.160;7.026;2023-03-23T12:58:01;17.20;99.90
52471;DHT22;38382;53.160;7.026;2023-03-23T13:06:15;18.20;96.10
52471;DHT22;38382;53.160;7.026;2023-03-23T13:08:54;18.00;99.90
52471;DHT22;38382;53.160;7.026;2023-03-23T13:11:41;17.70;99.90
52471;DHT22;38382;53.160;7.026;2023-03-23T13:19:33;16.70;99.90
52471;DHT22;38382;53.160;7.026;2023-03-23T13:22:11;16.50;99.90
52471;DHT22;38382;53.160;7.026;2023-03-23T13:24:48;16.50;99.90
52471;DHT22;38382;53.160;7.026;2023-03-23T13:27:15;16.40;99.90
52471;DHT22;38382;53.160;7.026;2023-03-23T13:29:45;16.20;99.90
52471;DHT22;38382;53.160;7.026;2023-03-23T13:32:18;16.10;99.90
52471;DHT22;38382;53.160;7.026;2023-03-23T13:34:46;16.00;99.90
52471;DHT22;38382;53.160;7.026;2023-03-23T13:37:31;16.00;99.90
52471;DHT22;38382;53.160;7.026;2023-03-23T13:42:53;16.90;99.90
52471;DHT22;38382;53.160;7.026;2023-03-23T13:47:48;17.30;99.90
52471;DHT22;38382;53.160;7.026;2023-03-23T14:06:05;16.70;99.90
52471;DHT22;38382;53.160;7.026;2023-03-23T14:11:00;16.40;99.90
52471;DHT22;38382;53.160;7.026;2023-03-23T14:13:36;16.70;99.90
52471;DHT22;38382;53.160;7.026;2023-03-23T14:16:13;16.80;99.90
52471;DHT22;38382;53.160;7.026;2023-03-23T14:18:41;16.80;99.90
52471;DHT22;38382;53.160;7.026;2023-03-23T14:21:32;16.50;99.90
52471;DHT22;38382;53.160;7.026;2023-03-23T14:24:19;16.30;99.90
52471;DHT22;38382;53.160;7.026;2023-03-23T14:26:45;16.10;99.90
52471;DHT22;38382;53.160;7.026;2023-03-23T14:29:12;16.10;99.90
52471;DHT22;38382;53.160;7.026;2023-03-23T14:31:39;16.10;99.90
52471;DHT22;38382;53.160;7.026;2023-03-23T14:34:15;16.30;99.90
52471;DHT22;38382;53.160;7.026;2023-03-23T14:36:42;16.30;99.90
52471;DHT22;38382;53.160;7.026;2023-03-23T14:41:38;16.50;99.90
52471;DHT22;38382;53.160;7.026;2023-03-23T14:44:08;16.50;99.90
52471;DHT22;38382;53.160;7.026;2023-03-23T14:46:35;16.70;99.90
52471;DHT22;38382;53.160;7.026;2023-03-23T14:49:04;17.60;99.90
52471;DHT22;38382;53.160;7.026;2023-03-23T14:51:30;18.70;97.90
52471;DHT22;38382;53.160;7.026;2023-03-23T14:53:59;19.30;92.70
52471;DHT22;38382;53.160;7.026;2023-03-23T14:56:35;19.20;91.40
52471;DHT22;38382;53.160;7.026;2023-03-23T14:59:06;18.10;93.70
52471;DHT22;38382;53.160;7.026;2023-03-23T15:01:36;17.30;97.20
52471;DHT22;38382;53.160;7.026;2023-03-23T15:04:29;16.60;99.90
52471;DHT22;38382;53.160;7.026;2023-03-23T15:06:59;16.50;99.90
52471;DHT22;38382;53.160;7.026;2023-03-23T15:09:25;17.60;99.90
52471;DHT22;38382;53.160;7.026;2023-03-23T15:11:58;19.30;98.70
52471;DHT22;38382;53.160;7.026;2023-03-23T15:14:28;20.20;95.30
52471;DHT22;38382;53.160;7.026;2023-03-23T15:16:56;20.80;90.80
52471;DHT22;38382;53.160;7.026;2023-03-23T15:19:25;20.50;91.30
52471;DHT22;38382;53.160;7.026;2023-03-23T15:21:57;20.00;92.30
52471;DHT22;38382;53.160;7.026;2023-03-23T15:24:38;20.20;90.60
52471;DHT22;38382;53.160;7.026;2023-03-23T15:27:24;20.10;93.00
52471;DHT22;38382;53.160;7.026;2023-03-23T15:29:53;19.50;91.80
52471;DHT22;38382;53.160;7.026;2023-03-23T15:32:30;19.00;95.60
52471;DHT22;38382;53.160;7.026;2023-03-23T15:34:58;18.40;96.50
52471;DHT22;38382;53.160;7.026;2023-03-23T15:37:31;18.60;97.70
52471;DHT22;38382;53.160;7.026;2023-03-23T15:39:59;19.60;95.40
52471;DHT22;38382;53.160;7.026;2023-03-23T15:42:30;20.40;92.10
52471;DHT22;38382;53.160;7.026;2023-03-23T15:52:41;21.80;82.80
52471;DHT22;38382;53.160;7.026;2023-03-23T15:55:27;22.20;83.30
52471;DHT22;38382;53.160;7.026;2023-03-23T15:57:54;22.60;80.10
52471;DHT22;38382;53.160;7.026;2023-03-23T16:00:24;22.70;77.80
52471;DHT22;38382;53.160;7.026;2023-03-23T16:02:57;22.60;76.10
52471;DHT22;38382;53.160;7.026;2023-03-23T16:05:24;22.00;76.30
52471;DHT22;38382;53.160;7.026;2023-03-23T16:07:50;21.70;78.90
52471;DHT22;38382;53.160;7.026;2023-03-23T16:10:19;20.80;80.20
52471;DHT22;38382;53.160;7.026;2023-03-23T16:12:45;19.80;83.40
52471;DHT22;38382;53.160;7.026;2023-03-23T16:15:12;19.00;90.20
52471;DHT22;38382;53.160;7.026;2023-03-23T16:17:38;18.20;93.10
52471;DHT22;38382;53.160;7.026;2023-03-23T16:20:19;17.60;95.30
52471;DHT22;38382;53.160;7.026;2023-03-23T16:22:46;17.30;97.10
52471;DHT22;38382;53.160;7.026;2023-03-23T16:25:13;17.00;98.40
52471;DHT22;38382;53.160;7.026;2023-03-23T16:27:40;16.70;99.20
52471;DHT22;38382;53.160;7.026;2023-03-23T16:30:26;16.40;99.70
52471;DHT22;38382;53.160;7.026;2023-03-23T16:32:52;16.00;99.10
52471;DHT22;38382;53.160;7.026;2023-03-23T16:35:19;15.90;99.90
52471;DHT22;38382;53.160;7.026;2023-03-23T16:37:53;15.70;99.90
52471;DHT22;38382;53.160;7.026;2023-03-23T16:40:20;15.60;99.90
52471;DHT22;38382;53.160;7.026;2023-03-23T16:42:47;15.50;99.90
52471;DHT22;38382;53.160;7.026;2023-03-23T16:45:14;15.40;99.90
52471;DHT22;38382;53.160;7.026;2023-03-23T16:47:40;15.30;99.90
52471;DHT22;38382;53.160;7.026;2023-03-23T16:50:08;15.20;99.90
52471;DHT22;38382;53.160;7.026;2023-03-23T16:52:37;15.00;99.90
52471;DHT22;38382;53.160;7.026;2023-03-23T16:55:04;14.90;99.90
52471;DHT22;38382;53.160;7.026;2023-03-23T16:57:32;14.80;99.90
52471;DHT22;38382;53.160;7.026;2023-03-23T17:00:00;14.70;99.90
52471;DHT22;38382;53.160;7.026;2023-03-23T17:02:25;14.60;99.90
52471;DHT22;38382;53.160;7.026;2023-03-23T17:04:52;14.50;99.90
52471;DHT22;38382;53.160;7.026;2023-03-23T17:07:17;14.50;99.90
52471;DHT22;38382;53.160;7.026;2023-03-23T17:09:43;14.40;99.90
52471;DHT22;38382;53.160;7.026;2023-03-23T17:12:12;14.40;99.90
52471;DHT22;38382;53.160;7.026;2023-03-23T17:14:38;14.20;99.90
52471;DHT22;38382;53.160;7.026;2023-03-23T17:17:04;14.10;99.90
52471;DHT22;38382;53.160;7.026;2023-03-23T17:19:30;14.10;99.90
52471;DHT22;38382;53.160;7.026;2023-03-23T17:21:56;13.90;99.90
52471;DHT22;38382;53.160;7.026;2023-03-23T17:24:21;13.80;99.90
52471;DHT22;38382;53.160;7.026;2023-03-23T17:26:47;13.70;99.90
52471;DHT22;38382;53.160;7.026;2023-03-23T17:29:13;13.60;99.90
52471;DHT22;38382;53.160;7.026;2023-03-23T17:31:39;13.50;99.90
52471;DHT22;38382;53.160;7.026;2023-03-23T17:34:06;13.40;99.90
52471;DHT22;38382;53.160;7.026;2023-03-23T17:36:31;13.30;99.90
52471;DHT22;38382;53.160;7.026;2023-03-23T17:38:57;13.30;99.90
52471;DHT22;38382;53.160;7.026;2023-03-23T17:41:23;13.20;99.90
52471;DHT22;38382;53.160;7.026;2023-03-23T17:43:49;13.10;99.90
52471;DHT22;38382;53.160;7.026;2023-03-23T17:46:15;13.00;99.90
52471;DHT22;38382;53.160;7.026;2023-03-23T17:48:41;13.00;99.90
52471;DHT22;38382;53.160;7.026;2023-03-23T17:51:07;12.90;99.90